Time;durP1;ratioP1;P1;durP2;ratioP2;P2;SDS_P1;SDS_P2;PMS_P1;PMS_P2;Temp;Humidity;BMP_temperature;BMP_pressure;BME280_temperature;BME280_humidity;BME280_pressure;Samples;Min_cycle;Max_cycle;Signal;HPM_P1;HPM_P2
2022/08/12 00:43:58;;;;;;;3.45;3.13;;;24.40;51.80;;;;;;5012134;28;20387;-66
2022/08/12 00:46:52;;;;;;;3.30;3.00;;;24.40;51.90;;;;;;5012001;28;20396;-66
2022/08/12 00:49:20;;;;;;;3.35;3.05;;;24.40;51.90;;;;;;5011947;28;20421;-66
2022/08/12 00:54:40;;;;;;;3.45;3.15;;;24.40;51.90;;;;;;5012255;28;20416;-66
2022/08/12 00:57:19;;;;;;;3.30;3.00;;;24.40;52.00;;;;;;5011961;28;20389;-67
2022/08/12 00:59:58;;;;;;;3.50;3.20;;;24.40;52.00;;;;;;5011894;28;20424;-66
2022/08/12 01:02:32;;;;;;;3.47;2.92;;;24.40;52.10;;;;;;5011867;28;20385;-66
2022/08/12 01:13:28;;;;;;;4.45;3.58;;;24.40;52.10;;;;;;5011997;28;20773;-66
2022/08/12 01:15:56;;;;;;;4.57;3.77;;;24.40;52.10;;;;;;5011723;28;20388;-66
2022/08/12 01:18:34;;;;;;;4.22;3.50;;;24.40;52.10;;;;;;5011588;28;20400;-66
2022/08/12 01:21:12;;;;;;;3.75;3.13;;;24.40;52.10;;;;;;5011700;28;20392;-66
2022/08/12 01:23:49;;;;;;;3.67;3.38;;;24.40;52.20;;;;;;5011626;28;20464;-66
2022/08/12 01:26:22;;;;;;;3.47;3.17;;;24.40;52.10;;;;;;5014495;28;20396;-66
2022/08/12 01:28:49;;;;;;;3.97;3.40;;;24.40;52.10;;;;;;5015236;28;20760;-66
2022/08/12 01:31:17;;;;;;;4.47;3.38;;;24.40;52.20;;;;;;5013948;28;20396;-66
2022/08/12 01:34:06;;;;;;;4.23;3.40;;;24.30;52.00;;;;;;5014952;28;20400;-65
2022/08/12 01:36:40;;;;;;;4.20;3.40;;;24.40;52.10;;;;;;5014750;28;20397;-66
2022/08/12 01:39:07;;;;;;;3.50;2.97;;;24.30;52.00;;;;;;5015084;28;20887;-66
2022/08/12 01:41:38;;;;;;;3.50;3.20;;;24.30;52.00;;;;;;5015060;28;20748;-66
2022/08/12 01:44:07;;;;;;;4.40;3.58;;;24.30;51.90;;;;;;4997667;28;20756;-66
2022/08/12 01:46:52;;;;;;;3.72;3.40;;;24.30;52.00;;;;;;5014563;28;20401;-66
2022/08/12 01:49:32;;;;;;;3.90;3.50;;;24.30;51.90;;;;;;5014809;28;20388;-66
2022/08/12 01:52:03;;;;;;;4.72;3.60;;;24.30;52.00;;;;;;5014806;28;20424;-66
2022/08/12 01:54:37;;;;;;;3.60;3.30;;;24.30;52.00;;;;;;5014829;28;20389;-66
2022/08/12 01:57:43;;;;;;;3.70;3.40;;;24.30;52.00;;;;;;5014850;28;20471;-66
2022/08/12 02:00:12;;;;;;;3.80;3.50;;;24.30;52.00;;;;;;5014561;28;20454;-66
2022/08/12 02:02:47;;;;;;;3.67;3.38;;;24.30;52.10;;;;;;5014605;28;20451;-66
2022/08/12 02:12:00;;;;;;;3.92;3.60;;;24.30;52.10;;;;;;5014763;28;20466;-66
2022/08/12 02:14:38;;;;;;;3.92;3.33;;;24.30;52.10;;;;;;5014387;28;20393;-66
2022/08/12 02:17:13;;;;;;;3.53;3.22;;;24.30;52.10;;;;;;5014320;28;20392;-66
2022/08/12 02:19:52;;;;;;;3.97;3.58;;;24.30;52.10;;;;;;5014289;28;20471;-66
2022/08/12 02:22:30;;;;;;;3.53;3.22;;;24.30;52.10;;;;;;5014232;28;20384;-65
2022/08/12 02:25:20;;;;;;;3.70;3.30;;;24.30;52.20;;;;;;5014321;28;20458;-66
2022/08/12 02:27:48;;;;;;;3.83;3.17;;;24.30;52.10;;;;;;5007979;28;20401;-66
2022/08/12 02:30:19;;;;;;;3.20;2.90;;;24.30;52.00;;;;;;5014080;28;20396;-66
2022/08/12 02:32:47;;;;;;;3.97;3.57;;;24.30;52.00;;;;;;4996509;28;20449;-66
2022/08/12 02:35:18;;;;;;;3.20;2.90;;;24.30;52.00;;;;;;4996452;28;20401;-66
2022/08/12 02:37:46;;;;;;;3.55;3.25;;;24.30;52.10;;;;;;4995672;28;21048;-66
2022/08/12 02:40:13;;;;;;;3.55;3.20;;;24.20;52.10;;;;;;5013795;28;20785;-66
2022/08/12 02:42:52;;;;;;;3.17;2.88;;;24.20;52.00;;;;;;5013869;28;20475;-66
2022/08/12 02:45:24;;;;;;;4.15;3.30;;;24.20;51.90;;;;;;4997425;28;20396;-66
2022/08/12 02:47:53;;;;;;;3.40;3.10;;;24.20;52.00;;;;;;5013856;28;20396;-66
2022/08/12 02:50:21;;;;;;;3.88;3.45;;;24.20;52.00;;;;;;5013688;28;20435;-66
2022/08/12 02:52:50;;;;;;;3.70;3.40;;;24.20;52.00;;;;;;5013674;28;20396;-66
2022/08/12 02:55:22;;;;;;;3.97;3.60;;;24.20;51.90;;;;;;5013608;28;20411;-66
2022/08/12 02:57:50;;;;;;;3.63;3.33;;;24.20;52.10;;;;;;4995975;28;20889;-66
2022/08/12 03:00:17;;;;;;;3.78;3.47;;;24.20;52.00;;;;;;5013121;28;20447;-66
2022/08/12 03:02:45;;;;;;;4.25;3.85;;;24.20;51.90;;;;;;5013552;28;20460;-66
2022/08/12 03:05:14;;;;;;;3.63;3.33;;;24.20;52.00;;;;;;5013461;28;20496;-66
2022/08/12 03:07:48;;;;;;;3.85;3.40;;;24.20;52.00;;;;;;5013336;28;20414;-66
2022/08/12 03:10:17;;;;;;;3.50;3.20;;;24.20;52.40;;;;;;5013392;28;20527;-66
2022/08/12 03:12:45;;;;;;;4.38;3.20;;;24.20;52.30;;;;;;5013226;28;20405;-66
2022/08/12 03:15:14;;;;;;;4.45;3.22;;;24.20;52.90;;;;;;5013304;28;20401;-66
2022/08/12 03:17:50;;;;;;;7.28;3.03;;;24.20;52.90;;;;;;5013331;28;20393;-69
2022/08/12 03:20:22;;;;;;;7.73;3.20;;;24.20;53.90;;;;;;5013067;28;20424;-69
2022/08/12 03:22:50;;;;;;;6.68;3.67;;;24.30;55.10;;;;;;5013194;28;20396;-69
2022/08/12 03:25:17;;;;;;;5.32;3.40;;;24.30;54.80;;;;;;5013100;28;20419;-69
2022/08/12 03:27:48;;;;;;;5.85;3.40;;;24.30;54.70;;;;;;5013113;28;20858;-69
2022/08/12 03:30:19;;;;;;;8.57;3.10;;;24.40;55.10;;;;;;5012927;28;20396;-69
2022/08/12 03:32:49;;;;;;;7.63;3.13;;;24.40;55.10;;;;;;5013022;28;20757;-68
2022/08/12 03:35:35;;;;;;;9.13;2.90;;;24.40;55.50;;;;;;5012815;28;20401;-69
2022/08/12 03:38:04;;;;;;;6.72;3.17;;;24.40;55.40;;;;;;5012789;28;20491;-69
2022/08/12 04:00:24;;;;;;;7.53;3.40;;;24.50;54.30;;;;;;5012487;28;20428;-68
2022/08/12 04:02:59;;;;;;;10.98;3.40;;;24.40;54.20;;;;;;4994867;28;20405;-68
2022/08/12 04:05:26;;;;;;;7.78;3.92;;;24.40;54.10;;;;;;5011244;28;20412;-68
2022/08/12 04:07:52;;;;;;;8.35;4.05;;;24.40;51.70;;;;;;4994484;28;20877;-68
2022/08/12 04:10:18;;;;;;;8.75;4.28;;;24.30;51.80;;;;;;5011064;28;20408;-69
2022/08/12 04:15:39;;;;;;;9.20;4.00;;;24.20;50.40;;;;;;5012616;28;20376;-69
2022/08/12 04:18:05;;;;;;;7.65;4.15;;;24.20;50.50;;;;;;5012311;28;20399;-68
2022/08/12 04:20:31;;;;;;;8.88;4.20;;;24.10;49.40;;;;;;5010930;28;20425;-68
2022/08/12 04:22:57;;;;;;;11.75;4.20;;;24.10;49.10;;;;;;4994306;28;20907;-69
2022/08/12 04:25:24;;;;;;;9.85;3.85;;;24.00;49.10;;;;;;5012142;28;20477;-69
2022/08/12 04:27:50;;;;;;;7.60;3.80;;;24.00;49.10;;;;;;5012283;28;20439;-68
2022/08/12 04:30:16;;;;;;;6.05;3.50;;;24.00;49.50;;;;;;5012109;28;20483;-69
2022/08/12 04:32:42;;;;;;;7.30;3.63;;;24.00;49.70;;;;;;5012241;28;20392;-68
2022/08/12 04:35:08;;;;;;;6.90;4.00;;;24.00;49.90;;;;;;5012086;28;20401;-69
2022/08/12 04:37:34;;;;;;;5.20;4.03;;;24.00;49.80;;;;;;5011827;28;21030;-69
2022/08/12 04:40:00;;;;;;;6.30;3.90;;;24.00;50.00;;;;;;5012033;28;20509;-68
2022/08/12 04:42:25;;;;;;;6.07;3.55;;;24.00;50.20;;;;;;5011978;28;20500;-68
2022/08/12 04:44:52;;;;;;;5.40;3.53;;;24.00;50.30;;;;;;5011761;28;20491;-68
2022/08/12 04:47:20;;;;;;;5.68;3.80;;;24.00;50.50;;;;;;5011976;28;20385;-69
2022/08/12 04:49:49;;;;;;;5.73;3.80;;;24.00;50.50;;;;;;4994324;28;20475;-68
2022/08/12 04:52:15;;;;;;;4.28;3.63;;;24.00;50.70;;;;;;5010694;28;20404;-68
2022/08/12 04:54:42;;;;;;;3.85;3.45;;;24.00;50.70;;;;;;5011924;28;20405;-68
2022/08/12 04:57:08;;;;;;;5.00;3.85;;;24.00;50.80;;;;;;5011942;28;20488;-68
2022/08/12 04:59:35;;;;;;;5.37;3.50;;;24.00;50.90;;;;;;5010941;28;20678;-68
2022/08/12 05:02:00;;;;;;;5.45;3.60;;;24.00;51.00;;;;;;5015692;28;20389;-68
2022/08/12 05:04:27;;;;;;;5.05;3.90;;;24.00;51.10;;;;;;5014451;28;20415;-69
2022/08/12 05:06:53;;;;;;;7.15;3.67;;;24.00;51.10;;;;;;5015813;28;20439;-66
2022/08/12 05:09:18;;;;;;;5.15;3.65;;;24.00;51.20;;;;;;5015611;28;20401;-66
2022/08/12 05:11:48;;;;;;;4.70;3.40;;;24.00;51.20;;;;;;5015717;28;20393;-66
2022/08/12 05:14:14;;;;;;;4.65;3.30;;;24.00;51.20;;;;;;4997918;28;20397;-66
2022/08/12 05:16:40;;;;;;;5.90;3.47;;;24.00;51.10;;;;;;5015346;28;20466;-66
2022/08/12 05:19:06;;;;;;;5.47;3.22;;;24.00;51.40;;;;;;5015393;28;20412;-66
2022/08/12 05:21:32;;;;;;;6.37;3.37;;;24.00;51.50;;;;;;5015500;28;20519;-66
2022/08/12 05:23:58;;;;;;;4.50;3.25;;;24.00;51.50;;;;;;5015489;28;20380;-66
2022/08/12 05:26:24;;;;;;;4.60;4.05;;;24.00;51.50;;;;;;5015225;28;21051;-66
2022/08/12 05:28:52;;;;;;;5.10;3.50;;;24.00;51.60;;;;;;4997726;28;20393;-65
2022/08/12 05:31:19;;;;;;;5.28;3.80;;;24.00;51.60;;;;;;5015337;28;20389;-66
2022/08/12 05:33:46;;;;;;;4.78;3.85;;;24.00;51.60;;;;;;5015267;28;20404;-66
2022/08/12 05:36:14;;;;;;;4.75;3.80;;;24.00;51.70;;;;;;5015135;28;20384;-66
2022/08/12 05:38:56;;;;;;;4.25;3.83;;;24.00;51.60;;;;;;5014954;28;20404;-66
2022/08/12 05:41:30;;;;;;;4.80;3.72;;;24.00;51.70;;;;;;5015051;28;20400;-66
2022/08/12 05:44:00;;;;;;;4.13;3.67;;;24.00;51.70;;;;;;5014300;28;20420;-66
2022/08/12 05:46:28;;;;;;;4.17;3.73;;;24.00;51.60;;;;;;5015006;28;20388;-66
2022/08/12 05:48:54;;;;;;;5.30;3.88;;;24.00;51.60;;;;;;5014966;28;20392;-66
2022/08/12 05:51:24;;;;;;;4.77;3.80;;;24.00;51.60;;;;;;5014848;28;20388;-66
2022/08/12 05:53:51;;;;;;;4.68;3.85;;;24.00;51.60;;;;;;5014908;28;20409;-66
2022/08/12 05:56:23;;;;;;;6.00;3.80;;;24.00;51.60;;;;;;5014761;28;20440;-66
2022/08/12 05:58:50;;;;;;;4.68;3.70;;;24.00;51.30;;;;;;5014757;28;20488;-66
2022/08/12 06:01:16;;;;;;;5.33;3.53;;;24.00;51.50;;;;;;5014628;28;20397;-66
2022/08/12 06:03:42;;;;;;;6.45;3.80;;;24.00;51.50;;;;;;4997075;28;20393;-65
2022/08/12 06:06:09;;;;;;;5.35;3.58;;;24.00;51.70;;;;;;5014637;28;20396;-66
2022/08/12 06:08:35;;;;;;;6.18;3.80;;;24.00;51.60;;;;;;4997049;28;20389;-65
2022/08/12 06:11:03;;;;;;;6.13;4.05;;;24.00;51.70;;;;;;5013989;28;20404;-66
2022/08/12 06:13:29;;;;;;;5.50;3.50;;;24.00;51.40;;;;;;5014124;28;20385;-65
2022/08/12 06:15:55;;;;;;;4.97;3.97;;;24.00;51.40;;;;;;5014523;28;20948;-66
2022/08/12 06:18:21;;;;;;;5.63;3.97;;;24.00;51.50;;;;;;5014393;28;20427;-66
2022/08/12 06:20:48;;;;;;;5.20;3.58;;;24.00;51.50;;;;;;5014272;28;20562;-65
2022/08/12 06:23:14;;;;;;;5.28;3.67;;;24.00;50.70;;;;;;5014267;28;20381;-65
2022/08/12 06:25:42;;;;;;;5.70;3.67;;;24.00;51.10;;;;;;4996716;28;20408;-66
2022/08/12 06:28:16;;;;;;;4.97;3.58;;;24.10;51.60;;;;;;5014291;28;20407;-66
2022/08/12 06:30:44;;;;;;;5.00;3.60;;;24.10;51.90;;;;;;5014157;28;20436;-66
2022/08/12 06:33:12;;;;;;;5.80;3.70;;;24.10;51.60;;;;;;5013990;28;20761;-66
2022/08/12 06:35:40;;;;;;;5.00;3.85;;;24.10;51.90;;;;;;5012794;28;20405;-66
2022/08/12 06:38:16;;;;;;;5.95;3.58;;;24.10;51.30;;;;;;5013781;28;20987;-66
2022/08/12 06:43:27;;;;;;;4.13;3.30;;;24.20;51.70;;;;;;5014085;28;21004;-66
2022/08/12 06:45:56;;;;;;;4.57;3.60;;;24.20;51.70;;;;;;5013892;28;20484;-66
2022/08/12 06:48:24;;;;;;;4.50;3.50;;;24.20;51.70;;;;;;5013869;28;20385;-65
2022/08/12 06:50:49;;;;;;;4.80;3.78;;;24.20;51.50;;;;;;5013778;28;20381;-66
2022/08/12 06:53:15;;;;;;;4.68;3.53;;;24.20;51.60;;;;;;5013673;28;20400;-66
2022/08/12 06:55:41;;;;;;;3.93;3.20;;;24.30;51.70;;;;;;5013673;28;20483;-66
2022/08/12 06:58:08;;;;;;;3.92;3.53;;;24.30;51.70;;;;;;5013676;28;20401;-66
2022/08/12 07:00:33;;;;;;;3.72;3.33;;;24.30;51.60;;;;;;5013427;28;20427;-65
2022/08/12 07:03:02;;;;;;;4.63;4.10;;;24.30;51.60;;;;;;5013507;28;20385;-65
2022/08/12 07:05:28;;;;;;;4.50;3.60;;;24.30;51.70;;;;;;5013428;28;20463;-66
2022/08/12 07:08:00;;;;;;;4.03;3.28;;;24.30;51.50;;;;;;5012201;28;20401;-65
2022/08/12 07:10:26;;;;;;;4.38;3.33;;;24.30;51.70;;;;;;5013266;28;20425;-66
2022/08/12 07:12:55;;;;;;;4.15;3.50;;;24.30;51.70;;;;;;5012130;28;20433;-66
2022/08/12 07:15:25;;;;;;;3.88;3.40;;;24.30;51.70;;;;;;4995627;28;20492;-66
2022/08/12 07:17:59;;;;;;;4.43;3.60;;;24.30;51.70;;;;;;5008861;28;20916;-66
2022/08/12 07:20:30;;;;;;;3.90;3.40;;;24.30;51.80;;;;;;5015991;28;20428;-66
2022/08/12 07:22:56;;;;;;;4.13;3.50;;;24.30;51.90;;;;;;4993544;28;20398;-68
2022/08/12 07:25:31;;;;;;;4.00;3.60;;;24.30;51.90;;;;;;4992319;28;20836;-66
2022/08/12 07:28:00;;;;;;;4.07;3.55;;;24.30;51.80;;;;;;4992286;28;20395;-66
2022/08/12 07:30:26;;;;;;;4.45;3.38;;;24.20;51.80;;;;;;4993406;28;20402;-65
2022/08/12 07:32:53;;;;;;;3.70;3.40;;;24.30;51.80;;;;;;5005972;28;20939;-66
2022/08/12 07:35:19;;;;;;;4.18;3.75;;;24.30;52.00;;;;;;5013012;28;20870;-65
2022/08/12 07:37:46;;;;;;;4.90;3.22;;;24.30;52.20;;;;;;5012708;28;20419;-65
2022/08/12 07:40:14;;;;;;;5.93;3.33;;;24.30;52.20;;;;;;4995193;28;20432;-66
2022/08/12 07:42:40;;;;;;;9.05;4.57;;;24.30;52.90;;;;;;5012897;28;20754;-65
2022/08/12 07:45:08;;;;;;;9.55;4.50;;;24.40;53.30;;;;;;4995180;28;20433;-66
2022/08/12 07:47:34;;;;;;;9.27;4.20;;;24.40;52.80;;;;;;4995066;28;20821;-65
2022/08/12 07:50:01;;;;;;;7.75;4.10;;;24.40;52.40;;;;;;5011530;28;20451;-65
2022/08/12 07:52:27;;;;;;;8.32;4.00;;;24.40;52.40;;;;;;5012559;28;20479;-65
2022/08/12 07:54:53;;;;;;;7.57;3.92;;;24.40;52.20;;;;;;5012683;28;20389;-66
2022/08/12 07:57:19;;;;;;;6.55;4.00;;;24.30;52.10;;;;;;5011384;28;20466;-66
2022/08/12 07:59:45;;;;;;;5.03;3.58;;;24.30;52.10;;;;;;4994857;28;20801;-65
2022/08/12 08:02:11;;;;;;;5.50;3.57;;;24.30;52.20;;;;;;5011092;28;20903;-65
2022/08/12 08:04:55;;;;;;;5.97;3.92;;;24.30;52.10;;;;;;5012426;28;20388;-65
2022/08/12 08:07:22;;;;;;;6.67;4.00;;;24.30;52.10;;;;;;5012395;28;20447;-65
2022/08/12 08:09:48;;;;;;;4.80;3.40;;;24.30;52.20;;;;;;5012421;28;20385;-65
2022/08/12 08:14:57;;;;;;;4.05;3.50;;;24.30;52.20;;;;;;5012345;28;20388;-65
2022/08/12 08:17:24;;;;;;;5.20;3.53;;;24.30;52.30;;;;;;5012254;28;20396;-65
2022/08/12 08:19:54;;;;;;;4.28;3.38;;;24.30;52.40;;;;;;5011420;28;20858;-66
2022/08/12 08:22:20;;;;;;;4.13;3.38;;;24.30;52.40;;;;;;4994598;28;20424;-65
2022/08/12 08:24:50;;;;;;;4.07;3.47;;;24.30;52.40;;;;;;5012321;28;20874;-65
2022/08/12 08:27:16;;;;;;;4.90;3.35;;;24.30;52.30;;;;;;5012141;28;20400;-65
2022/08/12 08:29:44;;;;;;;4.80;3.53;;;24.30;52.40;;;;;;5012330;28;20422;-65
2022/08/12 08:32:10;;;;;;;5.75;3.63;;;24.30;52.40;;;;;;5012092;28;20792;-65
2022/08/12 08:34:36;;;;;;;4.10;3.70;;;24.30;52.40;;;;;;5011606;28;20480;-66
2022/08/12 08:37:02;;;;;;;5.07;3.60;;;24.30;52.40;;;;;;5007508;28;20409;-65
2022/08/12 08:39:30;;;;;;;4.87;3.43;;;24.30;52.50;;;;;;5007496;28;20410;-66
2022/08/12 08:44:40;;;;;;;3.90;3.50;;;24.30;52.50;;;;;;4992713;28;20728;-65
2022/08/12 08:47:08;;;;;;;3.80;3.50;;;24.30;52.50;;;;;;4992397;28;20445;-65
2022/08/12 08:49:35;;;;;;;3.70;3.30;;;24.30;52.50;;;;;;4992389;28;20433;-65
2022/08/12 08:52:08;;;;;;;4.20;3.33;;;24.30;52.50;;;;;;4992429;28;20390;-65
2022/08/12 08:54:33;;;;;;;4.22;3.40;;;24.30;52.50;;;;;;4992380;28;20387;-65
2022/08/12 08:57:00;;;;;;;3.60;3.30;;;24.30;52.50;;;;;;4992565;28;20387;-65
2022/08/12 08:59:26;;;;;;;3.58;2.83;;;24.30;52.50;;;;;;4992238;28;20433;-65
2022/08/12 09:01:52;;;;;;;3.83;3.30;;;24.30;52.60;;;;;;4992271;28;20775;-65
2022/08/12 09:04:23;;;;;;;4.07;3.45;;;24.30;52.70;;;;;;4992304;28;20397;-65
2022/08/12 09:06:59;;;;;;;3.90;3.10;;;24.30;52.60;;;;;;4992391;28;20402;-65
2022/08/12 09:09:25;;;;;;;3.50;3.20;;;24.30;52.60;;;;;;4992205;28;20394;-65
2022/08/12 09:14:35;;;;;;;4.65;3.30;;;24.30;52.70;;;;;;4992551;28;20921;-65
2022/08/12 09:17:01;;;;;;;3.50;3.20;;;24.30;52.50;;;;;;4990965;28;20437;-65
2022/08/12 09:19:28;;;;;;;3.60;3.23;;;24.30;52.60;;;;;;4992163;28;20418;-65
2022/08/12 09:21:54;;;;;;;3.65;3.35;;;24.30;52.70;;;;;;4992166;28;20437;-65
2022/08/12 09:24:19;;;;;;;4.32;3.28;;;24.30;52.80;;;;;;4992121;28;20398;-65
2022/08/12 09:26:47;;;;;;;3.53;3.10;;;24.30;52.60;;;;;;4991986;28;20397;-65
2022/08/12 09:29:15;;;;;;;3.63;3.30;;;24.30;52.80;;;;;;5007059;28;20433;-65
2022/08/12 09:31:40;;;;;;;3.50;3.20;;;24.30;52.90;;;;;;5007249;28;20502;-65
2022/08/12 09:34:09;;;;;;;3.63;3.33;;;24.30;52.90;;;;;;4992054;28;20474;-65
2022/08/12 09:36:37;;;;;;;3.38;3.08;;;24.30;53.10;;;;;;4992730;28;20871;-66
2022/08/12 09:39:07;;;;;;;3.50;3.20;;;24.30;53.00;;;;;;5011581;28;20429;-65
2022/08/12 09:41:40;;;;;;;3.40;3.10;;;24.30;53.00;;;;;;5011612;28;20389;-65
2022/08/12 09:46:51;;;;;;;3.97;3.00;;;24.30;53.10;;;;;;5012595;28;20439;-65
2022/08/12 09:49:17;;;;;;;3.50;2.92;;;24.30;53.10;;;;;;4997074;28;20401;-65
2022/08/12 09:51:46;;;;;;;3.20;2.90;;;24.30;53.00;;;;;;5014974;28;20492;-65
2022/08/12 09:54:12;;;;;;;3.30;3.00;;;24.30;53.10;;;;;;5014865;28;20399;-65
2022/08/12 09:56:39;;;;;;;3.63;2.92;;;24.30;53.10;;;;;;5014900;28;20383;-65
2022/08/12 09:59:08;;;;;;;3.10;2.77;;;24.30;53.10;;;;;;5013607;28;20409;-65
2022/08/12 10:01:37;;;;;;;3.40;3.10;;;24.30;53.10;;;;;;4997224;28;20404;-65
2022/08/12 10:04:09;;;;;;;3.33;2.97;;;24.30;53.20;;;;;;4997151;28;20405;-65
2022/08/12 10:06:38;;;;;;;3.55;3.25;;;24.30;53.10;;;;;;5014744;28;20393;-65
2022/08/12 10:09:06;;;;;;;3.10;2.80;;;24.30;53.10;;;;;;4997030;28;20385;-65
2022/08/12 10:14:16;;;;;;;3.47;2.60;;;24.30;53.10;;;;;;5014839;28;20876;-65
2022/08/12 10:16:43;;;;;;;3.10;2.80;;;24.30;53.60;;;;;;5014581;28;20397;-65
2022/08/12 10:19:09;;;;;;;3.27;2.90;;;24.30;53.00;;;;;;5014387;28;20431;-65
2022/08/12 10:21:36;;;;;;;4.22;2.95;;;24.40;53.10;;;;;;4996787;28;20939;-65
2022/08/12 10:24:08;;;;;;;5.43;2.88;;;24.30;52.90;;;;;;5014213;28;20492;-65
2022/08/12 10:29:38;;;;;;;6.83;2.80;;;24.30;51.80;;;;;;5011041;28;20388;-65
2022/08/12 10:32:20;;;;;;;4.40;2.95;;;24.30;51.90;;;;;;5013709;28;20400;-65
2022/08/12 10:34:49;;;;;;;3.70;2.70;;;24.30;52.10;;;;;;5013867;28;20939;-65
2022/08/12 10:37:17;;;;;;;3.87;2.73;;;24.30;52.20;;;;;;5013528;28;20473;-65
2022/08/12 10:39:44;;;;;;;3.00;2.70;;;24.30;52.30;;;;;;5013921;28;20421;-65
2022/08/12 10:45:03;;;;;;;3.20;2.90;;;24.40;52.50;;;;;;5014088;28;20996;-66
2022/08/12 10:47:30;;;;;;;2.92;2.55;;;24.30;52.30;;;;;;5013727;28;20396;-66
2022/08/12 10:49:57;;;;;;;3.13;2.75;;;24.40;52.60;;;;;;5013721;28;20853;-66
2022/08/12 10:52:25;;;;;;;3.20;2.87;;;24.30;52.50;;;;;;5013694;28;20389;-66
2022/08/12 10:54:54;;;;;;;4.00;2.55;;;24.40;52.60;;;;;;5013580;28;20412;-65
2022/08/12 10:57:20;;;;;;;3.60;2.70;;;24.40;52.70;;;;;;5012994;28;20385;-65
2022/08/12 10:59:46;;;;;;;2.88;2.50;;;24.30;52.70;;;;;;5013535;28;20854;-65
2022/08/12 11:02:13;;;;;;;3.47;2.45;;;24.40;52.70;;;;;;5012095;28;20393;-65
2022/08/12 11:04:39;;;;;;;2.67;2.38;;;24.40;52.80;;;;;;5013535;28;20396;-65
2022/08/12 11:07:06;;;;;;;3.13;2.83;;;24.40;52.70;;;;;;5013147;28;20389;-65
2022/08/12 11:09:33;;;;;;;2.72;2.30;;;24.40;52.70;;;;;;5013479;28;20388;-65
2022/08/12 11:12:05;;;;;;;3.00;2.40;;;24.40;52.80;;;;;;5013292;28;20417;-65
2022/08/12 11:14:35;;;;;;;2.77;2.57;;;24.40;52.70;;;;;;5013361;28;20825;-67
2022/08/12 11:17:06;;;;;;;2.45;2.25;;;24.40;52.80;;;;;;5004397;28;20934;-68
2022/08/12 11:19:34;;;;;;;3.20;2.40;;;24.40;52.80;;;;;;5001420;28;20429;-65
2022/08/12 11:21:59;;;;;;;3.57;2.60;;;24.40;52.50;;;;;;5004253;28;20439;-66
2022/08/12 11:24:26;;;;;;;4.60;2.38;;;24.40;51.70;;;;;;4999704;28;20826;-67
2022/08/12 11:26:53;;;;;;;5.60;2.70;;;24.40;51.70;;;;;;5003173;28;20453;-65
2022/08/12 11:29:20;;;;;;;9.50;3.00;;;24.40;50.20;;;;;;5001560;28;20382;-67
2022/08/12 11:31:46;;;;;;;7.90;2.90;;;24.50;53.00;;;;;;5002973;28;20397;-68
2022/08/12 11:34:12;;;;;;;7.13;2.78;;;24.50;51.50;;;;;;5003065;28;20389;-68
2022/08/12 11:36:48;;;;;;;7.22;3.10;;;24.60;52.10;;;;;;4994866;28;20397;-68
2022/08/12 11:39:13;;;;;;;5.35;2.90;;;24.60;51.60;;;;;;5012704;28;20507;-68
2022/08/12 11:41:39;;;;;;;4.17;2.97;;;24.70;51.50;;;;;;5012483;28;20480;-68
2022/08/12 11:44:05;;;;;;;4.80;2.70;;;24.70;50.80;;;;;;5012653;28;20865;-68
2022/08/12 11:46:35;;;;;;;6.38;2.90;;;24.70;50.70;;;;;;5012743;28;20458;-68
2022/08/12 11:49:01;;;;;;;4.35;2.70;;;24.70;50.30;;;;;;5012698;28;20388;-68
2022/08/12 11:51:26;;;;;;;3.70;2.67;;;24.70;50.00;;;;;;5012606;28;20397;-68
2022/08/12 11:53:52;;;;;;;4.60;2.70;;;24.70;49.80;;;;;;4994798;28;20877;-68
2022/08/12 11:56:17;;;;;;;3.67;3.07;;;24.70;50.00;;;;;;5012207;28;20404;-68
2022/08/12 11:58:43;;;;;;;4.00;2.90;;;24.70;49.80;;;;;;5012384;28;20393;-68
2022/08/12 12:01:09;;;;;;;4.50;3.10;;;24.70;49.20;;;;;;5012275;28;20895;-69
2022/08/12 12:03:35;;;;;;;3.90;2.80;;;24.60;49.10;;;;;;4994739;28;20877;-68
2022/08/12 12:06:01;;;;;;;3.17;2.80;;;24.60;48.50;;;;;;5011065;28;20424;-67
2022/08/12 12:08:27;;;;;;;3.50;2.58;;;24.60;48.70;;;;;;5012121;28;20403;-68
2022/08/12 12:10:53;;;;;;;3.10;2.80;;;24.60;48.80;;;;;;5011588;28;20397;-68
2022/08/12 12:13:20;;;;;;;4.05;2.92;;;24.60;48.60;;;;;;5012270;28;20418;-68
2022/08/12 12:15:46;;;;;;;7.57;2.75;;;24.60;48.40;;;;;;5012156;28;20892;-68
2022/08/12 12:18:23;;;;;;;6.60;2.92;;;24.60;47.30;;;;;;4994369;28;20419;-68
2022/08/12 12:20:49;;;;;;;5.90;2.90;;;24.60;48.10;;;;;;5004688;28;20783;-68
2022/08/12 12:23:14;;;;;;;6.37;3.20;;;24.70;48.80;;;;;;4992462;28;20395;-68
2022/08/12 12:25:40;;;;;;;4.60;2.53;;;24.70;48.90;;;;;;4992123;28;20424;-67
2022/08/12 12:28:06;;;;;;;4.87;2.70;;;24.70;49.20;;;;;;4974602;28;20573;-68
2022/08/12 12:30:35;;;;;;;3.33;3.03;;;24.70;49.30;;;;;;4992459;28;20816;-68
2022/08/12 12:33:01;;;;;;;4.43;2.53;;;24.80;49.50;;;;;;4992109;28;20513;-68
2022/08/12 12:35:27;;;;;;;4.00;2.80;;;24.70;49.50;;;;;;4992160;28;20518;-68
2022/08/12 12:38:04;;;;;;;5.07;2.67;;;24.80;49.60;;;;;;4993935;28;20861;-69
2022/08/12 12:40:31;;;;;;;2.80;2.60;;;24.80;49.80;;;;;;5000532;28;20452;-68
2022/08/12 12:42:57;;;;;;;3.20;2.60;;;24.80;49.90;;;;;;5000355;28;20551;-71
2022/08/12 12:45:24;;;;;;;3.38;2.60;;;24.80;50.00;;;;;;5000276;28;20401;-71
2022/08/12 12:48:01;;;;;;;3.00;2.50;;;24.80;50.10;;;;;;5001893;28;20384;-68
2022/08/12 12:50:33;;;;;;;3.17;2.30;;;24.90;50.20;;;;;;4981926;28;20489;-68
2022/08/12 12:52:59;;;;;;;3.20;2.50;;;24.90;50.20;;;;;;5000743;28;20484;-68
2022/08/12 12:55:26;;;;;;;2.63;2.42;;;24.90;50.50;;;;;;4984027;28;20407;-68
2022/08/12 12:57:52;;;;;;;2.50;2.28;;;24.90;50.50;;;;;;5002634;28;20449;-68
2022/08/12 13:00:19;;;;;;;2.57;2.37;;;25.00;50.60;;;;;;5000964;28;20448;-68
2022/08/12 13:02:52;;;;;;;3.07;2.47;;;25.00;50.60;;;;;;5001505;28;20416;-68
2022/08/12 13:05:37;;;;;;;2.80;2.00;;;25.00;50.60;;;;;;5001738;28;20450;-68
2022/08/12 13:08:20;;;;;;;2.65;2.35;;;25.00;50.70;;;;;;5004220;28;20396;-68
2022/08/12 13:10:46;;;;;;;3.08;2.30;;;25.00;50.60;;;;;;5001815;28;20393;-68
2022/08/12 13:13:11;;;;;;;2.90;2.60;;;25.00;50.80;;;;;;5001662;28;20425;-68
2022/08/12 13:15:37;;;;;;;2.63;2.38;;;25.00;50.80;;;;;;5000440;28;20481;-67
2022/08/12 13:18:04;;;;;;;2.33;2.13;;;25.00;50.70;;;;;;4999372;28;20387;-67
2022/08/12 13:20:30;;;;;;;2.60;2.35;;;25.00;50.70;;;;;;5001118;28;20429;-67
2022/08/12 13:22:56;;;;;;;2.65;2.25;;;25.00;50.80;;;;;;5006030;28;20391;-67
2022/08/12 13:25:23;;;;;;;2.58;2.38;;;25.00;50.80;;;;;;5005889;28;20421;-67
2022/08/12 13:27:49;;;;;;;2.50;2.30;;;25.00;50.80;;;;;;5002935;28;20391;-67
2022/08/12 13:30:19;;;;;;;2.42;2.20;;;25.00;50.80;;;;;;5004718;28;20385;-67
2022/08/12 13:32:53;;;;;;;2.72;2.28;;;25.00;51.00;;;;;;5005131;28;20406;-67
2022/08/12 13:35:19;;;;;;;2.50;2.30;;;25.00;51.00;;;;;;5004047;28;20885;-67
2022/08/12 13:37:53;;;;;;;2.80;2.30;;;25.00;51.00;;;;;;5004612;28;20430;-67
2022/08/12 13:40:45;;;;;;;2.55;2.25;;;25.00;51.10;;;;;;5004890;28;20432;-67
2022/08/12 13:43:14;;;;;;;2.47;2.28;;;25.00;51.20;;;;;;5002932;28;20497;-67
2022/08/12 13:45:40;;;;;;;3.22;2.30;;;25.00;51.20;;;;;;5003911;28;20477;-67
2022/08/12 13:48:07;;;;;;;2.50;2.30;;;25.10;51.20;;;;;;5002899;28;20409;-67
2022/08/12 13:50:36;;;;;;;2.50;2.00;;;25.00;51.20;;;;;;5005017;28;20439;-67
2022/08/12 13:53:10;;;;;;;2.20;2.00;;;25.00;51.20;;;;;;5004343;28;20402;-66
2022/08/12 13:55:39;;;;;;;3.50;2.50;;;25.10;51.30;;;;;;5003405;28;20436;-68
2022/08/12 13:58:05;;;;;;;5.47;2.30;;;25.00;51.30;;;;;;5004193;28;20402;-68
2022/08/12 14:00:34;;;;;;;4.70;2.42;;;25.10;51.40;;;;;;5002560;28;20422;-67
2022/08/12 14:03:01;;;;;;;6.28;2.70;;;25.00;49.20;;;;;;5003342;28;20381;-68
2022/08/12 14:05:27;;;;;;;4.43;2.40;;;25.00;48.90;;;;;;5004522;28;20396;-68
2022/08/12 14:08:04;;;;;;;3.58;2.47;;;25.00;48.20;;;;;;5002999;28;20397;-68
2022/08/12 14:10:36;;;;;;;7.88;2.65;;;25.00;46.70;;;;;;5002443;28;20394;-67
2022/08/12 14:13:11;;;;;;;6.35;2.42;;;25.00;47.10;;;;;;5003158;28;20742;-67
2022/08/12 14:15:45;;;;;;;4.00;2.53;;;25.00;46.80;;;;;;5004143;28;20749;-67
2022/08/12 14:18:20;;;;;;;4.68;2.60;;;24.90;46.40;;;;;;4987306;28;20484;-68
2022/08/12 14:20:51;;;;;;;3.35;2.80;;;24.90;46.40;;;;;;5002510;28;20508;-68
2022/08/12 14:23:18;;;;;;;6.97;2.88;;;24.90;46.10;;;;;;5004341;28;20377;-68
2022/08/12 14:25:45;;;;;;;7.15;2.88;;;24.90;46.60;;;;;;4986438;28;20402;-68
2022/08/12 14:28:15;;;;;;;8.70;2.85;;;24.90;46.60;;;;;;4984746;28;20387;-67
2022/08/12 14:30:43;;;;;;;5.45;3.20;;;24.80;46.50;;;;;;5003041;28;20392;-68
2022/08/12 14:33:09;;;;;;;5.03;2.92;;;24.90;46.20;;;;;;5003123;28;20389;-67
2022/08/12 14:35:35;;;;;;;6.97;2.88;;;24.80;46.20;;;;;;5002545;28;20395;-67
2022/08/12 14:38:15;;;;;;;6.70;3.10;;;24.80;46.10;;;;;;5002515;28;20516;-67
2022/08/12 14:40:42;;;;;;;4.85;2.95;;;24.80;45.80;;;;;;5003997;28;20427;-68
2022/08/12 14:43:08;;;;;;;5.40;3.08;;;24.80;45.80;;;;;;5003930;28;20389;-68